createdAt,value
2022-08-07T00:01:43.952Z,100015.59
2022-08-07T00:03:09.530Z,100016.31
2022-08-07T00:04:44.381Z,100020.47
2022-08-07T00:06:17.674Z,100004.34
2022-08-07T00:07:58.510Z,100014.63
2022-08-07T00:09:35.523Z,100013.19
2022-08-07T00:11:08.590Z,100016.38
2022-08-07T00:12:43.876Z,100026.66
2022-08-07T00:14:33.034Z,100023.78
2022-08-07T00:16:07.526Z,100028.69
2022-08-07T00:17:40.543Z,100032.00
2022-08-07T00:19:21.633Z,100023.91
2022-08-07T00:20:55.213Z,100021.03
2022-08-07T00:22:35.389Z,100021.03
2022-08-07T00:24:08.269Z,100029.66
2022-08-07T00:25:41.541Z,100017.97
2022-08-07T00:27:13.854Z,100020.72
2022-08-07T00:28:56.429Z,100013.91
2022-08-07T00:30:29.661Z,100017.25
2022-08-07T00:32:03.722Z,100027.50
2022-08-07T00:33:38.893Z,100021.06
2022-08-07T00:35:12.949Z,100022.97
2022-08-07T00:36:49.157Z,100025.59
2022-08-07T00:38:31.758Z,100013.28
2022-08-07T00:40:05.779Z,100024.41
2022-08-07T00:41:53.509Z,100024.66
2022-08-07T00:44:00.725Z,100025.59
2022-08-07T00:45:21.304Z,100020.00
2022-08-07T00:46:55.518Z,100022.03
2022-08-07T00:48:32.012Z,100031.75
2022-08-07T00:50:18.970Z,100024.75
2022-08-07T00:51:57.719Z,100019.75
2022-08-07T00:53:38.924Z,100022.94
2022-08-07T00:55:25.534Z,100019.34
2022-08-07T00:57:14.727Z,100026.16
2022-08-07T00:58:49.846Z,100031.28
2022-08-07T01:00:23.206Z,100018.31
2022-08-07T01:01:56.994Z,100023.31
2022-08-07T01:03:57.391Z,100018.28
2022-08-07T01:05:24.637Z,100009.94
2022-08-07T01:06:57.064Z,100008.53
2022-08-07T01:08:29.546Z,100020.06
2022-08-07T01:10:06.925Z,100012.56
2022-08-07T01:12:10.298Z,100013.88
2022-08-07T01:13:37.130Z,100003.06
2022-08-07T01:15:11.826Z,100003.16
2022-08-07T01:16:50.581Z,100004.59
2022-08-07T01:18:25.290Z,100006.41
2022-08-07T01:20:08.172Z,100000.44
2022-08-07T01:21:41.487Z,100008.91
2022-08-07T01:23:16.680Z,99993.78
2022-08-07T01:24:59.872Z,100017.97
2022-08-07T01:26:32.308Z,100013.22
2022-08-07T01:28:04.719Z,100011.19
2022-08-07T01:29:39.749Z,100005.69
2022-08-07T01:31:15.453Z,100009.66
2022-08-07T01:32:51.169Z,100010.97
2022-08-07T01:34:30.947Z,100005.34
2022-08-07T01:36:09.937Z,99999.75
2022-08-07T01:37:45.028Z,99990.69
2022-08-07T01:39:18.104Z,99993.31
2022-08-07T01:41:00.176Z,99999.63
2022-08-07T01:42:39.948Z,99981.16
2022-08-07T01:44:29.017Z,100003.91
2022-08-07T01:46:01.848Z,100004.19
2022-08-07T01:48:21.162Z,100007.47
2022-08-07T01:49:28.000Z,99992.25
2022-08-07T01:51:24.295Z,99998.22
2022-08-07T01:53:08.841Z,99996.66
2022-08-07T01:54:43.934Z,100001.53
2022-08-07T01:56:49.293Z,100006.06
2022-08-07T01:58:28.866Z,99991.03
2022-08-07T02:00:12.897Z,99989.03
2022-08-07T02:01:59.677Z,99993.22
2022-08-07T02:03:49.079Z,100002.25
2022-08-07T02:05:42.999Z,100000.22
2022-08-07T02:07:23.905Z,99998.22
2022-08-07T02:09:51.631Z,100000.34
2022-08-07T02:11:10.483Z,100004.75
2022-08-07T02:13:03.217Z,100000.44
2022-08-07T02:14:48.494Z,99998.22
2022-08-07T02:16:28.789Z,99998.69
2022-08-07T02:18:06.693Z,100013.13
2022-08-07T02:20:07.120Z,100000.00
2022-08-07T02:21:55.519Z,100016.31
2022-08-07T02:23:35.776Z,100005.47
2022-08-07T02:25:13.856Z,100000.56
2022-08-07T02:26:56.092Z,100005.34
2022-08-07T02:28:33.435Z,100008.31
2022-08-07T02:30:09.440Z,99994.88
2022-08-07T02:31:42.090Z,99992.22
2022-08-07T02:33:14.762Z,99986.38
2022-08-07T02:34:51.448Z,99998.22
2022-08-07T02:36:32.422Z,99993.28
2022-08-07T02:38:14.586Z,100005.69
2022-08-07T02:40:11.979Z,99999.50
2022-08-07T02:41:47.320Z,100005.94
2022-08-07T02:43:24.444Z,100007.72
2022-08-07T02:45:07.600Z,100007.00
2022-08-07T02:46:58.398Z,100004.25
2022-08-07T02:48:34.740Z,100001.44
2022-08-07T02:50:09.942Z,100002.25
2022-08-07T02:51:50.120Z,100004.88
2022-08-07T02:53:28.688Z,99997.81
2022-08-07T02:55:03.764Z,99997.97
2022-08-07T02:56:38.750Z,100015.00
2022-08-07T02:58:13.544Z,100017.50
2022-08-07T02:59:55.116Z,100010.00
2022-08-07T03:01:40.181Z,99995.69
2022-08-07T03:03:22.590Z,99990.81
2022-08-07T03:04:58.902Z,99995.34
2022-08-07T03:06:33.349Z,99997.25
2022-08-07T03:08:10.493Z,99986.28
2022-08-07T03:09:52.148Z,100002.59
2022-08-07T03:11:25.345Z,99999.75
2022-08-07T03:13:01.633Z,100004.25
2022-08-07T03:14:39.813Z,99994.38
2022-08-07T03:16:14.613Z,100001.00
2022-08-07T03:17:53.271Z,99992.91
2022-08-07T03:19:28.869Z,99989.22
2022-08-07T03:21:11.412Z,99983.72
2022-08-07T03:22:50.300Z,99996.00
2022-08-07T03:24:27.466Z,99984.44
2022-08-07T03:26:03.366Z,99987.44
2022-08-07T03:28:08.925Z,99986.72
2022-08-07T03:29:36.755Z,99986.97
2022-08-07T03:31:24.714Z,99984.84
2022-08-07T03:33:14.350Z,99985.66
2022-08-07T03:35:01.172Z,99969.19
2022-08-07T03:36:40.833Z,99978.16
2022-08-07T03:38:15.470Z,99988.28
2022-08-07T03:40:13.150Z,99978.75
2022-08-07T03:41:47.628Z,99987.44
2022-08-07T03:43:23.741Z,99981.47
2022-08-07T03:44:59.607Z,99975.91
2022-08-07T03:46:36.004Z,99969.72
2022-08-07T03:48:29.897Z,99979.44
2022-08-07T03:50:03.620Z,99976.72
2022-08-07T03:51:47.088Z,99962.44
2022-08-07T03:54:00.777Z,99962.44
2022-08-07T03:55:15.160Z,99978.88
2022-08-07T03:57:03.798Z,99983.28
2022-08-07T03:59:09.455Z,99979.34
2022-08-07T04:00:36.535Z,99972.56
2022-08-07T04:02:09.446Z,99983.41
2022-08-07T04:03:49.878Z,99981.34
2022-08-07T04:05:39.872Z,99978.63
2022-08-07T04:07:19.968Z,99989.59
2022-08-07T04:08:56.527Z,99990.31
2022-08-07T04:10:29.486Z,99980.06
2022-08-07T04:12:23.990Z,99980.78
2022-08-07T04:14:10.327Z,99991.16
2022-08-07T04:15:51.189Z,99988.53
2022-08-07T04:18:04.641Z,99987.34
2022-08-07T04:19:18.592Z,99984.47
2022-08-07T04:20:56.095Z,99991.28
2022-08-07T04:22:31.207Z,100005.09
2022-08-07T04:24:30.347Z,100010.00
2022-08-07T04:26:07.550Z,99995.81
2022-08-07T04:27:44.165Z,99993.22
2022-08-07T04:29:21.747Z,99993.91
2022-08-07T04:30:58.612Z,100000.81
2022-08-07T04:32:37.334Z,100008.69
2022-08-07T04:34:16.629Z,99998.94
2022-08-07T04:35:51.433Z,99999.88
2022-08-07T04:37:29.578Z,99995.09
2022-08-07T04:39:25.926Z,99992.72
2022-08-07T04:40:59.406Z,100005.16
2022-08-07T04:42:43.103Z,99989.63
2022-08-07T04:44:18.946Z,99996.41
2022-08-07T04:46:08.398Z,99991.66
2022-08-07T04:47:57.049Z,100004.88
2022-08-07T04:49:40.009Z,99995.34
2022-08-07T04:51:19.596Z,100000.25
2022-08-07T04:53:07.014Z,99998.44
2022-08-07T04:55:15.478Z,100009.53
2022-08-07T04:58:11.092Z,100003.69
2022-08-07T04:59:18.465Z,99999.63
2022-08-07T05:01:13.323Z,100001.06
2022-08-07T05:03:31.075Z,100001.88
2022-08-07T05:05:02.746Z,100003.44
2022-08-07T05:06:51.674Z,99999.38
2022-08-07T05:08:59.696Z,100004.47
2022-08-07T05:10:32.680Z,100008.53
2022-08-07T05:12:09.344Z,100015.47
2022-08-07T05:14:52.748Z,100003.91
2022-08-07T05:15:42.437Z,100013.44
2022-08-07T05:17:52.578Z,100016.78
2022-08-07T05:19:13.326Z,100015.59
2022-08-07T05:20:48.105Z,100023.84
2022-08-07T05:22:27.826Z,100010.19
2022-08-07T05:24:06.695Z,100015.09
2022-08-07T05:26:13.770Z,100015.31
2022-08-07T05:28:16.928Z,100021.75
2022-08-07T05:29:27.492Z,100020.69
2022-08-07T05:31:14.581Z,100026.44
2022-08-07T05:32:51.766Z,100029.88
2022-08-07T05:34:26.347Z,100033.44
2022-08-07T05:36:01.135Z,100020.06
2022-08-07T05:37:37.745Z,100022.31
2022-08-07T05:40:06.618Z,100022.19
2022-08-07T05:41:14.494Z,100031.00
2022-08-07T05:42:55.903Z,100029.69
2022-08-07T05:44:31.010Z,100034.59
2022-08-07T05:46:05.945Z,100020.47
2022-08-07T05:48:01.346Z,100030.47
2022-08-07T05:49:40.479Z,100029.50
2022-08-07T05:51:14.504Z,100026.13
2022-08-07T05:52:48.594Z,100024.94
2022-08-07T05:54:31.340Z,100021.94
2022-08-07T05:56:16.180Z,100028.34
2022-08-07T05:57:55.640Z,100021.63
2022-08-07T05:59:55.550Z,100021.84
2022-08-07T06:01:26.315Z,100024.00
2022-08-07T06:03:00.763Z,100042.53
2022-08-07T06:04:40.435Z,100030.22
2022-08-07T06:06:17.450Z,100047.72
2022-08-07T06:08:29.457Z,100036.38
2022-08-07T06:10:05.807Z,100032.50
2022-08-07T06:11:39.182Z,100031.38
2022-08-07T06:13:13.328Z,100036.41
2022-08-07T06:14:49.290Z,100035.06
2022-08-07T06:16:23.319Z,100026.81
2022-08-07T06:18:02.021Z,100035.91
2022-08-07T06:19:52.233Z,100028.59
2022-08-07T06:22:16.968Z,100023.38
2022-08-07T06:23:46.850Z,100037.25
2022-08-07T06:25:14.370Z,100039.59
2022-08-07T06:26:47.231Z,100038.38
2022-08-07T06:28:27.359Z,100035.72
2022-08-07T06:30:01.814Z,100040.22
2022-08-07T06:31:46.665Z,100039.09
2022-08-07T06:33:24.367Z,100033.28
2022-08-07T06:34:57.359Z,100046.63
2022-08-07T06:36:35.301Z,100041.53
2022-08-07T06:38:19.829Z,100041.97
2022-08-07T06:40:16.096Z,100038.50
2022-08-07T06:42:01.154Z,100051.94
2022-08-07T06:44:12.328Z,100057.75
2022-08-07T06:45:44.855Z,100056.13
2022-08-07T06:47:18.097Z,100043.75
2022-08-07T06:48:50.597Z,100047.00
2022-08-07T06:50:26.780Z,100040.53
2022-08-07T06:52:07.608Z,100050.59
2022-08-07T06:55:27.435Z,100046.81
2022-08-07T06:56:00.197Z,100045.78
2022-08-07T06:57:43.580Z,100063.72
2022-08-07T07:00:13.646Z,100052.25
2022-08-07T07:01:19.674Z,100051.22
2022-08-07T07:02:54.255Z,100052.56
2022-08-07T07:04:33.835Z,100049.66
2022-08-07T07:06:06.703Z,100046.81
2022-08-07T07:07:59.163Z,100051.44
2022-08-07T07:09:36.220Z,100050.41
2022-08-07T07:11:13.782Z,100066.81
2022-08-07T07:13:08.272Z,100053.63
2022-08-07T07:14:42.238Z,100051.44
2022-08-07T07:16:19.827Z,100062.38
2022-08-07T07:17:52.222Z,100048.59
2022-08-07T07:19:57.014Z,100049.16
2022-08-07T07:21:27.153Z,100046.00
2022-08-07T07:24:05.990Z,100061.75
2022-08-07T07:26:31.382Z,100056.16
2022-08-07T07:27:00.371Z,100050.50
2022-08-07T07:28:48.449Z,100057.84
2022-08-07T07:30:39.738Z,100049.84
2022-08-07T07:32:14.023Z,100048.34
2022-08-07T07:33:54.922Z,100043.09
2022-08-07T07:35:33.416Z,100052.09
2022-08-07T07:37:21.848Z,100046.59
2022-08-07T07:39:00.590Z,100040.47
2022-08-07T07:40:34.236Z,100039.72
2022-08-07T07:42:14.059Z,100038.72
2022-08-07T07:44:17.454Z,100049.66
2022-08-07T07:46:40.341Z,100043.75
2022-08-07T07:47:52.167Z,100043.13
2022-08-07T07:50:36.534Z,100049.44
2022-08-07T07:51:19.755Z,100048.53
2022-08-07T07:52:53.022Z,100057.25
2022-08-07T07:54:26.675Z,100052.31
2022-08-07T07:56:00.566Z,100061.25
2022-08-07T07:57:53.385Z,100057.72
2022-08-07T07:59:52.530Z,100053.88
2022-08-07T08:02:03.251Z,100058.41
2022-08-07T08:03:16.960Z,100056.03
2022-08-07T08:05:14.336Z,100047.59
2022-08-07T08:06:51.965Z,100059.38
2022-08-07T08:08:33.818Z,100060.94
2022-08-07T08:10:08.843Z,100055.44
2022-08-07T08:11:59.384Z,100052.84
2022-08-07T08:13:36.712Z,100049.44
2022-08-07T08:15:58.062Z,100054.91
2022-08-07T08:17:58.038Z,100058.72
2022-08-07T08:20:16.137Z,100060.34
2022-08-07T08:21:55.883Z,100061.06
2022-08-07T08:23:47.255Z,100049.84
2022-08-07T08:25:42.625Z,100048.72
2022-08-07T08:27:22.717Z,100049.78
2022-08-07T08:28:55.973Z,100053.66
2022-08-07T08:30:28.642Z,100046.50
2022-08-07T08:32:18.899Z,100054.69
2022-08-07T08:33:55.489Z,100051.53
2022-08-07T08:35:42.865Z,100055.78
2022-08-07T08:37:59.725Z,100062.22
2022-08-07T08:39:15.459Z,100064.25
2022-08-07T08:40:52.179Z,100063.00
2022-08-07T08:42:27.572Z,100062.19
2022-08-07T08:44:05.903Z,100064.13
2022-08-07T08:45:59.607Z,100063.44
2022-08-07T08:47:55.118Z,100058.41
2022-08-07T08:49:33.649Z,100056.34
2022-08-07T08:51:49.890Z,100055.72
2022-08-07T08:53:20.500Z,100067.25
2022-08-07T08:54:55.820Z,100063.44
2022-08-07T08:56:30.894Z,100055.38
2022-08-07T08:58:13.267Z,100060.19
2022-08-07T09:00:04.430Z,100056.28
2022-08-07T09:01:40.256Z,100060.41
2022-08-07T09:03:49.895Z,100055.78
2022-08-07T09:05:38.043Z,100065.63
2022-08-07T09:07:22.992Z,100057.47
2022-08-07T09:09:01.886Z,100057.16
2022-08-07T09:10:44.240Z,100059.22
2022-08-07T09:12:30.574Z,100058.72
2022-08-07T09:14:06.576Z,100050.09
2022-08-07T09:16:22.087Z,100050.63
2022-08-07T09:18:16.930Z,100049.34
2022-08-07T09:19:59.687Z,100055.38
2022-08-07T09:21:58.028Z,100044.59
2022-08-07T09:24:30.646Z,100042.19
2022-08-07T09:25:37.531Z,100041.31
2022-08-07T09:27:18.933Z,100038.28
2022-08-07T09:30:01.575Z,100030.94
2022-08-07T09:30:58.511Z,100032.91
2022-08-07T09:32:45.090Z,100031.97
2022-08-07T09:34:53.930Z,100035.59
2022-08-07T09:36:37.003Z,100036.91
2022-08-07T09:38:12.172Z,100033.16
2022-08-07T09:39:54.869Z,100024.34
2022-08-07T09:41:36.490Z,100028.06
2022-08-07T09:43:40.604Z,100027.81
2022-08-07T09:47:25.850Z,100026.38
2022-08-07T09:48:00.163Z,100021.34
2022-08-07T09:50:01.591Z,100014.94
2022-08-07T09:52:16.462Z,100012.97
2022-08-07T09:53:48.833Z,100015.69
2022-08-07T09:56:03.206Z,100016.53
2022-08-07T09:57:49.590Z,100021.66
2022-08-07T10:00:00.381Z,100016.84
2022-08-07T10:01:54.753Z,100007.50
2022-08-07T10:04:05.127Z,100007.81
2022-08-07T10:06:00.135Z,100011.03
2022-08-07T10:07:49.539Z,100010.22
2022-08-07T10:10:00.253Z,100012.13
2022-08-07T10:12:03.396Z,100012.81
2022-08-07T10:14:00.686Z,100012.72
2022-08-07T10:15:44.503Z,100014.38
2022-08-07T10:18:00.844Z,100011.59
2022-08-07T10:19:30.227Z,100001.94
2022-08-07T10:21:14.923Z,100006.28
2022-08-07T10:23:11.201Z,99998.13
2022-08-07T10:24:50.380Z,100005.97
2022-08-07T10:26:31.687Z,100001.84
2022-08-07T10:28:10.506Z,99998.44
2022-08-07T10:29:58.653Z,99992.97
2022-08-07T10:31:39.013Z,99999.13
2022-08-07T10:33:19.168Z,99993.69
2022-08-07T10:35:55.593Z,99993.09
2022-08-07T10:37:48.363Z,99985.31
2022-08-07T10:39:41.661Z,99993.91
2022-08-07T10:41:47.193Z,99989.13
2022-08-07T10:43:34.829Z,99998.75
2022-08-07T10:45:45.198Z,99990.84
2022-08-07T10:47:26.987Z,99987.19
2022-08-07T10:49:49.444Z,99988.72
2022-08-07T10:51:39.630Z,99987.88
2022-08-07T10:53:44.543Z,99989.84
2022-08-07T10:55:38.769Z,99988.00
2022-08-07T10:57:34.138Z,99984.66
2022-08-07T10:59:21.165Z,99984.84
2022-08-07T11:01:11.493Z,99986.88
2022-08-07T11:03:03.707Z,99981.63
2022-08-07T11:04:46.600Z,99966.56
2022-08-07T11:06:22.136Z,99985.41
2022-08-07T11:08:03.521Z,99974.22
2022-08-07T11:10:08.971Z,99975.47
2022-08-07T11:11:39.764Z,99972.94
2022-08-07T11:14:45.668Z,99976.59
2022-08-07T11:15:18.091Z,99977.34
2022-08-07T11:16:55.734Z,99975.28
2022-08-07T11:18:37.519Z,99976.56
2022-08-07T11:20:15.843Z,99976.47
2022-08-07T11:22:18.853Z,99965.44
2022-08-07T11:24:12.164Z,99963.72
2022-08-07T11:26:06.517Z,99969.91
2022-08-07T11:28:02.822Z,99972.19
2022-08-07T11:29:48.282Z,99964.63
2022-08-07T11:31:28.876Z,99967.28
2022-08-07T11:33:08.170Z,99962.94
2022-08-07T11:34:48.910Z,99963.56
2022-08-07T11:36:30.632Z,99955.88
2022-08-07T11:38:17.155Z,99958.41
2022-08-07T11:40:01.021Z,99954.78
2022-08-07T11:42:01.366Z,99955.47
2022-08-07T11:44:11.202Z,99956.88
2022-08-07T11:45:53.416Z,99947.28
2022-08-07T11:48:13.841Z,99950.38
2022-08-07T11:50:31.431Z,99948.59
2022-08-07T11:52:13.754Z,99952.91
2022-08-07T11:54:01.672Z,99944.56
2022-08-07T11:56:25.029Z,99937.81
2022-08-07T11:58:01.726Z,99941.97
2022-08-07T12:00:11.186Z,99944.22
2022-08-07T12:02:00.582Z,99938.09
2022-08-07T12:03:44.713Z,99939.59
2022-08-07T12:05:47.726Z,99935.97
2022-08-07T12:07:27.504Z,99946.78
2022-08-07T12:09:23.319Z,99938.66
2022-08-07T12:11:20.523Z,99932.81
2022-08-07T12:13:17.122Z,99931.13
2022-08-07T12:15:01.697Z,99933.19
2022-08-07T12:16:41.856Z,99941.50
2022-08-07T12:18:29.678Z,99946.28
2022-08-07T12:20:13.986Z,99934.31
2022-08-07T12:22:39.024Z,99943.38
2022-08-07T12:24:06.705Z,99935.94
2022-08-07T12:26:05.700Z,99943.75
2022-08-07T12:28:08.924Z,99942.91
2022-08-07T12:30:02.487Z,99941.59
2022-08-07T12:32:02.471Z,99936.16
2022-08-07T12:33:56.418Z,99937.59
2022-08-07T12:35:36.273Z,99936.19
2022-08-07T12:37:16.894Z,99926.63
2022-08-07T12:38:57.671Z,99931.72
2022-08-07T12:40:48.921Z,99934.00
2022-08-07T12:42:27.929Z,99926.50
2022-08-07T12:44:06.427Z,99923.94
2022-08-07T12:45:52.361Z,99924.81
2022-08-07T12:47:40.730Z,99915.88
2022-08-07T12:49:39.802Z,99915.19
2022-08-07T12:51:12.873Z,99913.38
2022-08-07T12:53:17.368Z,99919.94
2022-08-07T12:55:03.739Z,99909.75
2022-08-07T12:56:50.934Z,99910.56
2022-08-07T12:58:28.094Z,99907.97
2022-08-07T13:00:01.882Z,99910.25
2022-08-07T13:01:41.469Z,99916.63
2022-08-07T13:03:27.545Z,99908.31
2022-08-07T13:06:04.043Z,99906.97
2022-08-07T13:08:11.517Z,99902.09
2022-08-07T13:10:21.438Z,99902.69
2022-08-07T13:11:25.092Z,99904.09
2022-08-07T13:13:10.976Z,99901.94
2022-08-07T13:15:29.374Z,99895.03
2022-08-07T13:17:04.073Z,99888.06
2022-08-07T13:18:54.916Z,99893.66
2022-08-07T13:20:35.054Z,99893.03
2022-08-07T13:22:26.885Z,99888.75
2022-08-07T13:24:05.967Z,99894.91
2022-08-07T13:25:50.714Z,99888.41
2022-08-07T13:28:06.287Z,99888.28
2022-08-07T13:29:47.000Z,99878.50
2022-08-07T13:31:26.468Z,99877.75
2022-08-07T13:33:46.075Z,99879.03
2022-08-07T13:35:03.267Z,99883.06
2022-08-07T13:36:44.601Z,99881.53
2022-08-07T13:38:20.187Z,99879.38
2022-08-07T13:40:36.607Z,99869.53
2022-08-07T13:41:54.713Z,99886.94
2022-08-07T13:43:28.315Z,99872.97
2022-08-07T13:45:20.609Z,99863.91
2022-08-07T13:47:01.555Z,99858.09
2022-08-07T13:48:38.772Z,99869.78
2022-08-07T13:50:35.276Z,99866.16
2022-08-07T13:52:26.476Z,99856.16
2022-08-07T13:54:03.629Z,99866.66
2022-08-07T13:55:37.201Z,99858.47
2022-08-07T13:57:14.474Z,99854.47
2022-08-07T13:59:02.549Z,99848.34
2022-08-07T14:00:50.694Z,99863.06
2022-08-07T14:02:33.349Z,99857.56
2022-08-07T14:04:14.587Z,99856.16
2022-08-07T14:05:50.755Z,99852.72
2022-08-07T14:07:24.558Z,99850.56
2022-08-07T14:08:56.807Z,99845.06
2022-08-07T14:10:42.282Z,99845.75
2022-08-07T14:12:54.179Z,99843.63
2022-08-07T14:14:40.058Z,99840.22
2022-08-07T14:16:15.997Z,99845.78
2022-08-07T14:18:23.942Z,99844.34
2022-08-07T14:20:43.496Z,99842.28
2022-08-07T14:22:03.372Z,99838.81
2022-08-07T14:24:00.493Z,99833.94
2022-08-07T14:25:39.422Z,99833.81
2022-08-07T14:28:10.964Z,99833.13
2022-08-07T14:30:07.820Z,99828.13
2022-08-07T14:31:25.075Z,99821.78
2022-08-07T14:33:16.492Z,99822.47
2022-08-07T14:34:55.266Z,99824.59
2022-08-07T14:36:31.086Z,99832.91
2022-08-07T14:38:07.617Z,99832.16
2022-08-07T14:40:17.848Z,99824.41
2022-08-07T14:42:20.096Z,99825.69
2022-08-07T14:43:55.428Z,99824.22
2022-08-07T14:47:19.588Z,99820.75
2022-08-07T14:48:53.720Z,99813.88
2022-08-07T14:50:28.030Z,99821.56
2022-08-07T14:52:04.632Z,99812.53
2022-08-07T14:54:05.850Z,99822.38
2022-08-07T14:55:55.693Z,99820.16
2022-08-07T14:57:58.765Z,99813.75
2022-08-07T15:00:03.778Z,99813.03
2022-08-07T15:01:22.623Z,99815.75
2022-08-07T15:02:57.229Z,99811.53
2022-08-07T15:04:29.735Z,99806.59
2022-08-07T15:06:06.366Z,99814.88
2022-08-07T15:07:51.071Z,99812.13
2022-08-07T15:11:53.227Z,99812.81
2022-08-07T15:13:05.805Z,99815.59
2022-08-07T15:13:22.512Z,99817.00
2022-08-07T15:15:07.312Z,99806.53
2022-08-07T15:16:54.953Z,99801.03
2022-08-07T15:18:43.938Z,99799.66
2022-08-07T15:20:31.255Z,99803.75
2022-08-07T15:22:23.194Z,99801.50
2022-08-07T15:25:16.168Z,99793.78
2022-08-07T15:25:59.892Z,99796.50
2022-08-07T15:27:34.443Z,99794.44
2022-08-07T15:30:04.834Z,99792.38
2022-08-07T15:31:06.689Z,99793.72
2022-08-07T15:33:01.299Z,99795.06
2022-08-07T15:34:50.784Z,99788.03
2022-08-07T15:38:50.930Z,99790.81
2022-08-07T15:40:34.210Z,99795.66
2022-08-07T15:42:45.018Z,99792.09
2022-08-07T15:44:03.929Z,99787.84
2022-08-07T15:48:00.786Z,99788.47
2022-08-07T15:50:05.154Z,99796.13
2022-08-07T15:51:22.382Z,99780.00
2022-08-07T15:53:23.659Z,99786.91
2022-08-07T15:55:20.022Z,99791.13
2022-08-07T15:56:59.342Z,99786.25
2022-08-07T15:58:40.066Z,99786.25
2022-08-07T16:00:32.004Z,99789.75
2022-08-07T16:02:07.455Z,99786.91
2022-08-07T16:03:47.260Z,99786.88
2022-08-07T16:05:23.268Z,99788.94
2022-08-07T16:07:07.415Z,99790.31
2022-08-07T16:09:02.466Z,99791.69
2022-08-07T16:10:36.760Z,99796.41
2022-08-07T16:12:12.421Z,99792.22
2022-08-07T16:13:58.489Z,99793.47
2022-08-07T16:15:57.427Z,99789.88
2022-08-07T16:18:02.107Z,99790.41
2022-08-07T16:19:59.329Z,99789.56
2022-08-07T16:22:02.077Z,99778.38
2022-08-07T16:23:54.826Z,99783.97
2022-08-07T16:25:54.340Z,99791.47
2022-08-07T16:27:39.736Z,99783.84
2022-08-07T16:30:10.920Z,99783.75
2022-08-07T16:31:50.875Z,99790.69
2022-08-07T16:34:02.896Z,99782.28
2022-08-07T16:35:58.432Z,99791.94
2022-08-07T16:38:04.655Z,99790.47
2022-08-07T16:39:40.189Z,99786.81
2022-08-07T16:41:48.467Z,99788.03
2022-08-07T16:44:04.343Z,99780.84
2022-08-07T16:46:40.692Z,99783.47
2022-08-07T16:47:52.938Z,99781.88
2022-08-07T16:50:26.638Z,99782.41
2022-08-07T16:51:54.076Z,99780.22
2022-08-07T16:54:02.946Z,99789.16
2022-08-07T16:55:47.329Z,99783.50
2022-08-07T16:58:01.595Z,99782.66
2022-08-07T16:59:46.288Z,99787.47
2022-08-07T17:01:34.619Z,99790.19
2022-08-07T17:03:07.462Z,99787.31
2022-08-07T17:04:57.711Z,99783.16
2022-08-07T17:07:02.843Z,99784.38
2022-08-07T17:09:09.129Z,99784.38
2022-08-07T17:10:54.429Z,99788.81
2022-08-07T17:12:35.076Z,99789.97
2022-08-07T17:14:19.590Z,99785.69
2022-08-07T17:16:05.886Z,99782.78
2022-08-07T17:17:46.437Z,99790.22
2022-08-07T17:19:19.277Z,99798.44
2022-08-07T17:21:18.717Z,99790.53
2022-08-07T17:22:57.499Z,99789.75
2022-08-07T17:24:29.964Z,99790.50
2022-08-07T17:26:23.276Z,99790.34
2022-08-07T17:28:12.507Z,99783.13
2022-08-07T17:30:16.160Z,99781.53
2022-08-07T17:32:03.332Z,99784.19
2022-08-07T17:34:18.295Z,99783.31
2022-08-07T17:35:58.813Z,99784.47
2022-08-07T17:38:05.461Z,99784.13
2022-08-07T17:39:58.187Z,99785.97
2022-08-07T17:42:01.837Z,99798.09
2022-08-07T17:43:39.683Z,99794.38
2022-08-07T17:45:27.826Z,99802.34
2022-08-07T17:47:04.009Z,99804.19
2022-08-07T17:48:59.548Z,99802.66
2022-08-07T17:50:47.130Z,99804.44
2022-08-07T17:52:30.771Z,99812.53
2022-08-07T17:54:14.125Z,99810.19
2022-08-07T17:56:06.584Z,99810.56
2022-08-07T17:57:58.822Z,99807.66
2022-08-07T17:59:39.495Z,99815.63
2022-08-07T18:01:20.752Z,99815.53
2022-08-07T18:03:00.108Z,99816.06
2022-08-07T18:04:41.758Z,99822.16
2022-08-07T18:06:16.674Z,99820.50
2022-08-07T18:08:17.470Z,99824.56
2022-08-07T18:10:06.273Z,99817.59
2022-08-07T18:12:18.164Z,99820.94
2022-08-07T18:13:49.764Z,99821.47
2022-08-07T18:15:33.182Z,99836.53
2022-08-07T18:18:47.070Z,99830.25
2022-08-07T18:21:10.404Z,99821.31
2022-08-07T18:21:42.280Z,99826.78
2022-08-07T18:23:42.461Z,99835.06
2022-08-07T18:25:23.935Z,99817.75
2022-08-07T18:27:17.124Z,99828.03
2022-08-07T18:30:06.534Z,99831.56
2022-08-07T18:31:04.275Z,99831.56
2022-08-07T18:32:55.342Z,99838.47
2022-08-07T18:35:02.048Z,99849.50
2022-08-07T18:37:09.254Z,99849.44
2022-08-07T18:40:07.124Z,99845.91
2022-08-07T18:41:08.186Z,99850.63
2022-08-07T18:43:06.430Z,99851.34
2022-08-07T18:45:40.384Z,99858.28
2022-08-07T18:46:42.902Z,99858.38
2022-08-07T18:49:23.697Z,99862.47
2022-08-07T18:50:37.991Z,99863.25
2022-08-07T18:52:38.729Z,99858.44
2022-08-07T18:54:49.642Z,99859.03
2022-08-07T18:56:30.792Z,99868.78
2022-08-07T18:58:22.421Z,99870.25
2022-08-07T19:00:04.462Z,99858.50
2022-08-07T19:02:32.118Z,99866.16
2022-08-07T19:04:37.408Z,99859.19
2022-08-07T19:06:33.535Z,99859.84
2022-08-07T19:08:07.471Z,99869.00
2022-08-07T19:09:59.240Z,99864.53
2022-08-07T19:11:38.073Z,99875.72
2022-08-07T19:13:21.716Z,99871.31
2022-08-07T19:16:03.430Z,99876.53
2022-08-07T19:17:58.922Z,99882.31
2022-08-07T19:19:27.918Z,99886.97
2022-08-07T19:21:09.046Z,99886.97
2022-08-07T19:22:45.549Z,99897.38
2022-08-07T19:24:44.526Z,99887.97
2022-08-07T19:26:23.467Z,99877.16
2022-08-07T19:28:57.548Z,99884.28
2022-08-07T19:30:56.401Z,99878.75
2022-08-07T19:32:17.040Z,99888.75
2022-08-07T19:33:58.078Z,99878.09
2022-08-07T19:35:33.445Z,99874.38
2022-08-07T19:37:17.481Z,99872.47
2022-08-07T19:38:53.741Z,99875.28
2022-08-07T19:40:30.865Z,99876.25
2022-08-07T19:42:24.873Z,99881.47
2022-08-07T19:44:01.234Z,99883.56
2022-08-07T19:46:06.079Z,99871.44
2022-08-07T19:47:36.445Z,99889.00
2022-08-07T19:49:12.938Z,99885.19
2022-08-07T19:50:53.040Z,99884.25
2022-08-07T19:52:27.625Z,99891.19
2022-08-07T19:54:34.783Z,99885.72
2022-08-07T19:55:57.574Z,99895.38
2022-08-07T19:58:01.510Z,99905.72
2022-08-07T19:59:39.831Z,99907.03
2022-08-07T20:01:16.091Z,99910.50
2022-08-07T20:02:52.042Z,99910.50
2022-08-07T20:04:31.159Z,99916.09
2022-08-07T20:06:15.248Z,99935.88
2022-08-07T20:07:50.898Z,99935.88
2022-08-07T20:10:36.511Z,99942.09
2022-08-07T20:11:34.148Z,99940.06
2022-08-07T20:13:23.694Z,99943.53
2022-08-07T20:14:59.966Z,99935.88
2022-08-07T20:16:36.396Z,99934.47
2022-08-07T20:18:14.611Z,99940.06
2022-08-07T20:19:58.511Z,99949.03
2022-08-07T20:21:41.829Z,99936.03
2022-08-07T20:23:33.045Z,99936.75
2022-08-07T20:25:19.617Z,99935.50
2022-08-07T20:26:55.877Z,99933.50
2022-08-07T20:28:30.906Z,99933.63
2022-08-07T20:30:11.096Z,99932.41
2022-08-07T20:31:46.537Z,99927.03
2022-08-07T20:33:24.242Z,99928.69
2022-08-07T20:35:11.340Z,99930.38
2022-08-07T20:36:51.681Z,99923.06
2022-08-07T20:38:24.607Z,99930.16
2022-08-07T20:40:02.248Z,99929.06